createdAt,value
2023-04-13T00:00:46.726Z,12.70
2023-04-13T00:01:49.047Z,12.70
2023-04-13T00:02:54.466Z,12.70
2023-04-13T00:03:58.448Z,12.70
2023-04-13T00:05:03.984Z,12.70
2023-04-13T00:06:10.826Z,12.70
2023-04-13T00:07:17.046Z,12.70
2023-04-13T00:08:22.940Z,12.70
2023-04-13T00:09:31.038Z,12.70
2023-04-13T00:10:41.220Z,12.70
2023-04-13T00:11:46.974Z,12.70
2023-04-13T00:12:50.201Z,12.70
2023-04-13T00:13:53.433Z,12.60
2023-04-13T00:14:55.572Z,12.60
2023-04-13T00:15:59.218Z,12.70
2023-04-13T00:17:03.104Z,12.70
2023-04-13T00:18:07.083Z,12.70
2023-04-13T00:19:09.572Z,12.60
2023-04-13T00:20:15.485Z,12.60
2023-04-13T00:21:17.622Z,12.70
2023-04-13T00:22:19.884Z,12.60
2023-04-13T00:23:22.446Z,12.70
2023-04-13T00:24:24.749Z,12.60
2023-04-13T00:25:27.623Z,12.60
2023-04-13T00:26:30.564Z,12.60
2023-04-13T00:27:34.236Z,12.60
2023-04-13T00:28:36.327Z,12.60
2023-04-13T00:29:38.440Z,12.60
2023-04-13T00:30:40.582Z,12.50
2023-04-13T00:31:42.930Z,12.50
2023-04-13T00:32:46.013Z,12.60
2023-04-13T00:33:48.104Z,12.60
2023-04-13T00:34:50.386Z,12.50
2023-04-13T00:35:52.563Z,12.60
2023-04-13T00:36:54.714Z,12.60
2023-04-13T00:37:58.790Z,12.60
2023-04-13T00:39:00.994Z,12.60
2023-04-13T00:40:06.161Z,12.60
2023-04-13T00:41:08.346Z,12.70
2023-04-13T00:42:10.551Z,12.70
2023-04-13T00:43:15.002Z,12.70
2023-04-13T00:44:19.767Z,12.70
2023-04-13T00:45:21.985Z,12.70
2023-04-13T00:46:24.561Z,12.70
2023-04-13T00:47:29.128Z,12.70
2023-04-13T00:48:31.600Z,12.80
2023-04-13T00:49:34.815Z,12.80
2023-04-13T00:50:38.009Z,12.80
2023-04-13T00:51:40.581Z,12.70
2023-04-13T00:52:43.771Z,12.70
2023-04-13T00:53:46.357Z,12.70
2023-04-13T00:54:48.662Z,12.80
2023-04-13T00:55:50.804Z,12.80
2023-04-13T00:56:54.349Z,12.80
2023-04-13T00:57:58.074Z,12.80
2023-04-13T00:59:01.689Z,12.80
2023-04-13T01:00:07.891Z,12.80
2023-04-13T01:01:10.197Z,12.80
2023-04-13T01:02:13.226Z,12.80
2023-04-13T01:03:15.946Z,12.80
2023-04-13T01:04:18.867Z,12.80
2023-04-13T01:05:21.921Z,12.80
2023-04-13T01:06:28.843Z,12.80
2023-04-13T01:07:41.527Z,12.80
2023-04-13T01:08:53.254Z,12.80
2023-04-13T01:10:03.718Z,12.80
2023-04-13T01:11:11.893Z,12.80
2023-04-13T01:12:19.652Z,12.80
2023-04-13T01:13:26.108Z,12.70
2023-04-13T01:14:37.532Z,12.70
2023-04-13T01:15:46.859Z,12.70
2023-04-13T01:16:55.293Z,12.70
2023-04-13T01:18:05.256Z,12.70
2023-04-13T01:19:15.598Z,12.70
2023-04-13T01:20:18.262Z,12.80
2023-04-13T01:21:24.838Z,12.70
2023-04-13T01:22:29.983Z,12.70
2023-04-13T01:23:46.375Z,12.70
2023-04-13T01:25:06.781Z,12.70
2023-04-13T01:26:09.048Z,12.60
2023-04-13T01:27:15.175Z,12.70
2023-04-13T01:28:21.558Z,12.70
2023-04-13T01:29:25.229Z,12.70
2023-04-13T01:30:28.642Z,12.70
2023-04-13T01:32:47.888Z,12.70
2023-04-13T01:33:50.205Z,12.70
2023-04-13T01:34:52.679Z,12.60
2023-04-13T01:35:56.424Z,12.70
2023-04-13T01:37:00.058Z,12.70
2023-04-13T01:38:02.368Z,12.60
2023-04-13T01:39:05.774Z,12.60
2023-04-13T01:40:12.939Z,12.60
2023-04-13T01:41:15.581Z,12.60
2023-04-13T01:42:18.612Z,12.60
2023-04-13T01:43:23.692Z,12.50
2023-04-13T01:44:27.474Z,12.50
2023-04-13T01:45:33.471Z,12.60
2023-04-13T01:46:37.745Z,12.50
2023-04-13T01:47:44.940Z,12.50
2023-04-13T01:48:51.997Z,12.60
2023-04-13T01:50:01.974Z,12.50
2023-04-13T01:51:08.693Z,12.50
2023-04-13T01:52:12.180Z,12.50
2023-04-13T01:53:19.509Z,12.40
2023-04-13T01:54:25.941Z,12.40
2023-04-13T01:55:29.961Z,12.40
2023-04-13T01:56:33.004Z,12.40
2023-04-13T01:57:37.598Z,12.40
2023-04-13T01:58:43.313Z,12.40
2023-04-13T01:59:45.638Z,12.40
2023-04-13T02:00:49.263Z,12.40
2023-04-13T02:01:51.668Z,12.40
2023-04-13T02:02:54.452Z,12.40
2023-04-13T02:03:57.193Z,12.40
2023-04-13T02:04:59.894Z,12.40
2023-04-13T02:06:03.224Z,12.40
2023-04-13T02:07:05.312Z,12.40
2023-04-13T02:08:08.694Z,12.30
2023-04-13T02:09:11.116Z,12.30
2023-04-13T02:10:13.615Z,12.30
2023-04-13T02:11:18.329Z,12.20
2023-04-13T02:12:20.438Z,12.20
2023-04-13T02:13:22.497Z,12.10
2023-04-13T02:14:27.285Z,12.00
2023-04-13T02:15:29.433Z,12.00
2023-04-13T02:16:32.259Z,12.00
2023-04-13T02:17:34.501Z,11.90
2023-04-13T02:18:36.946Z,11.90
2023-04-13T02:19:39.244Z,11.80
2023-04-13T02:20:45.147Z,11.90
2023-04-13T02:21:47.858Z,11.90
2023-04-13T02:22:49.981Z,11.80
2023-04-13T02:23:55.049Z,11.80
2023-04-13T02:24:57.772Z,11.80
2023-04-13T02:25:59.922Z,11.70
2023-04-13T02:27:02.155Z,11.70
2023-04-13T02:28:04.959Z,11.60
2023-04-13T02:29:07.942Z,11.70
2023-04-13T02:30:12.204Z,11.70
2023-04-13T02:31:17.175Z,11.70
2023-04-13T02:32:19.638Z,11.70
2023-04-13T02:33:21.943Z,11.70
2023-04-13T02:34:24.093Z,11.70
2023-04-13T02:35:26.189Z,11.70
2023-04-13T02:36:30.584Z,11.70
2023-04-13T02:37:33.056Z,11.70
2023-04-13T02:38:37.392Z,11.70
2023-04-13T02:39:39.721Z,11.70
2023-04-13T02:40:43.178Z,11.70
2023-04-13T02:41:45.316Z,11.70
2023-04-13T02:42:48.374Z,11.70
2023-04-13T02:43:51.003Z,11.70
2023-04-13T02:44:53.168Z,11.70
2023-04-13T02:45:57.488Z,11.70
2023-04-13T02:46:59.662Z,11.70
2023-04-13T02:48:02.055Z,11.70
2023-04-13T02:49:04.160Z,11.70
2023-04-13T02:50:07.617Z,11.70
2023-04-13T02:51:09.962Z,11.70
2023-04-13T02:52:12.228Z,11.70
2023-04-13T02:53:14.768Z,11.70
2023-04-13T02:54:17.001Z,11.70
2023-04-13T02:55:19.415Z,11.60
2023-04-13T02:56:22.835Z,11.60
2023-04-13T02:57:25.331Z,11.60
2023-04-13T02:58:31.571Z,11.60
2023-04-13T02:59:34.001Z,11.60
2023-04-13T03:00:36.176Z,11.60
2023-04-13T03:01:39.914Z,11.50
2023-04-13T03:02:42.912Z,11.50
2023-04-13T03:03:45.896Z,11.50
2023-04-13T03:04:48.850Z,11.40
2023-04-13T03:05:51.498Z,11.40
2023-04-13T03:06:54.453Z,11.40
2023-04-13T03:07:57.122Z,11.40
2023-04-13T03:08:59.363Z,11.40
2023-04-13T03:10:05.436Z,11.40
2023-04-13T03:11:09.528Z,11.40
2023-04-13T03:12:11.802Z,11.40
2023-04-13T03:13:13.856Z,11.30
2023-04-13T03:14:22.041Z,11.30
2023-04-13T03:15:32.243Z,11.20
2023-04-13T03:16:34.665Z,11.30
2023-04-13T03:17:41.465Z,11.30
2023-04-13T03:18:46.002Z,11.30
2023-04-13T03:19:49.566Z,11.30
2023-04-13T03:20:51.675Z,11.30
2023-04-13T03:21:54.065Z,11.30
2023-04-13T03:22:58.489Z,11.30
2023-04-13T03:24:00.968Z,11.30
2023-04-13T03:25:03.452Z,11.30
2023-04-13T03:26:07.760Z,11.30
2023-04-13T03:27:09.888Z,11.20
2023-04-13T03:28:11.951Z,11.20
2023-04-13T03:29:14.033Z,11.20
2023-04-13T03:30:16.163Z,11.10
2023-04-13T03:31:18.293Z,11.10
2023-04-13T03:32:20.449Z,11.10
2023-04-13T03:33:24.031Z,11.20
2023-04-13T03:34:26.275Z,11.20
2023-04-13T03:35:28.438Z,11.20
2023-04-13T03:36:31.589Z,11.20
2023-04-13T03:37:40.398Z,11.20
2023-04-13T03:38:42.563Z,11.30
2023-04-13T03:39:48.220Z,11.20
2023-04-13T03:40:50.604Z,11.20
2023-04-13T03:41:52.890Z,11.20
2023-04-13T03:42:54.975Z,11.20
2023-04-13T03:43:57.309Z,11.20
2023-04-13T03:44:59.630Z,11.20
2023-04-13T03:46:01.844Z,11.20
2023-04-13T03:47:03.966Z,11.10
2023-04-13T03:48:06.942Z,11.10
2023-04-13T03:49:10.981Z,11.20
2023-04-13T03:50:13.510Z,11.20
2023-04-13T03:51:16.362Z,11.20
2023-04-13T03:52:18.594Z,11.20
2023-04-13T03:53:21.145Z,11.20
2023-04-13T03:54:23.244Z,11.20
2023-04-13T03:55:25.538Z,11.20
2023-04-13T03:56:29.932Z,11.30
2023-04-13T03:57:32.042Z,11.30
2023-04-13T03:58:34.785Z,11.30
2023-04-13T03:59:36.866Z,11.30
2023-04-13T04:00:39.053Z,11.20
2023-04-13T04:01:41.233Z,11.20
2023-04-13T04:02:43.683Z,11.20
2023-04-13T04:03:46.269Z,11.30
2023-04-13T04:04:50.031Z,11.30
2023-04-13T04:05:52.337Z,11.30
2023-04-13T04:06:58.178Z,11.30
2023-04-13T04:08:00.386Z,11.30
2023-04-13T04:09:02.510Z,11.30
2023-04-13T04:10:05.214Z,11.30
2023-04-13T04:11:07.504Z,11.30
2023-04-13T04:12:14.400Z,11.30
2023-04-13T04:13:16.821Z,11.30
2023-04-13T04:14:19.495Z,11.40
2023-04-13T04:15:21.588Z,11.40
2023-04-13T04:16:23.986Z,11.40
2023-04-13T04:17:26.254Z,11.40
2023-04-13T04:18:30.558Z,11.40
2023-04-13T04:19:32.692Z,11.50
2023-04-13T04:20:36.252Z,11.50
2023-04-13T04:21:38.388Z,11.50
2023-04-13T04:22:41.866Z,11.50
2023-04-13T04:23:45.603Z,11.60
2023-04-13T04:24:47.752Z,11.60
2023-04-13T04:25:49.833Z,11.50
2023-04-13T04:26:55.154Z,11.50
2023-04-13T04:27:57.973Z,11.50
2023-04-13T04:29:02.717Z,11.50
2023-04-13T04:30:06.327Z,11.50
2023-04-13T04:31:11.959Z,11.50
2023-04-13T04:32:15.517Z,11.60
2023-04-13T04:33:17.704Z,11.50
2023-04-13T04:34:19.931Z,11.60
2023-04-13T04:35:26.095Z,11.60
2023-04-13T04:36:29.661Z,11.60
2023-04-13T04:37:37.448Z,11.60
2023-04-13T04:38:39.588Z,11.60
2023-04-13T04:39:44.506Z,11.60
2023-04-13T04:40:46.796Z,11.60
2023-04-13T04:41:49.046Z,11.60
2023-04-13T04:42:51.434Z,11.60
2023-04-13T04:43:57.053Z,11.60
2023-04-13T04:44:59.464Z,11.70
2023-04-13T04:46:04.616Z,11.70
2023-04-13T04:47:06.911Z,11.80
2023-04-13T04:48:09.143Z,11.80
2023-04-13T04:49:15.872Z,11.80
2023-04-13T04:50:17.996Z,11.80
2023-04-13T04:51:25.263Z,11.80
2023-04-13T04:52:29.726Z,11.90
2023-04-13T04:53:32.091Z,11.90
2023-04-13T04:54:34.213Z,11.90
2023-04-13T04:55:36.369Z,11.90
2023-04-13T04:56:40.362Z,11.90
2023-04-13T04:57:43.883Z,11.90
2023-04-13T04:58:46.384Z,11.90
2023-04-13T04:59:49.351Z,12.00
2023-04-13T05:00:53.253Z,12.00
2023-04-13T05:01:55.416Z,12.00
2023-04-13T05:02:58.010Z,12.00
2023-04-13T05:04:01.657Z,12.10
2023-04-13T05:05:04.113Z,12.10
2023-04-13T05:06:07.133Z,12.10
2023-04-13T05:07:10.649Z,12.10
2023-04-13T05:08:14.493Z,12.10
2023-04-13T05:09:17.744Z,12.10
2023-04-13T05:10:20.229Z,12.10
2023-04-13T05:11:22.826Z,12.10
2023-04-13T05:12:25.268Z,12.10
2023-04-13T05:13:27.357Z,12.10
2023-04-13T05:14:29.502Z,12.10
2023-04-13T05:15:31.612Z,12.10
2023-04-13T05:16:34.456Z,12.10
2023-04-13T05:17:36.997Z,12.20
2023-04-13T05:18:46.449Z,12.10
2023-04-13T05:19:48.673Z,12.10
2023-04-13T05:20:51.538Z,12.20
2023-04-13T05:21:53.795Z,12.20
2023-04-13T05:22:56.030Z,12.10
2023-04-13T05:24:00.262Z,12.10
2023-04-13T05:25:02.415Z,12.20
2023-04-13T05:26:05.268Z,12.20
2023-04-13T05:27:09.772Z,12.20
2023-04-13T05:28:11.870Z,12.20
2023-04-13T05:29:14.035Z,12.20
2023-04-13T05:30:16.411Z,12.30
2023-04-13T05:31:18.603Z,12.30
2023-04-13T05:32:21.163Z,12.40
2023-04-13T05:33:23.671Z,12.40
2023-04-13T05:34:25.829Z,12.40
2023-04-13T05:35:28.122Z,12.40
2023-04-13T05:36:32.048Z,12.40
2023-04-13T05:37:34.180Z,12.40
2023-04-13T05:38:36.286Z,12.50
2023-04-13T05:39:40.958Z,12.50
2023-04-13T05:40:43.127Z,12.50
2023-04-13T05:41:45.297Z,12.50
2023-04-13T05:42:47.987Z,12.50
2023-04-13T05:43:50.139Z,12.50
2023-04-13T05:44:52.396Z,12.40
2023-04-13T05:45:54.647Z,12.40
2023-04-13T05:46:56.991Z,12.40
2023-04-13T05:48:01.659Z,12.30
2023-04-13T05:49:06.610Z,12.40
2023-04-13T05:50:09.864Z,12.40
2023-04-13T05:51:15.687Z,12.30
2023-04-13T05:52:17.833Z,12.40
2023-04-13T05:53:19.926Z,12.40
2023-04-13T05:54:22.046Z,12.40
2023-04-13T05:55:27.656Z,12.50
2023-04-13T05:56:30.063Z,12.50
2023-04-13T05:57:32.319Z,12.50
2023-04-13T05:58:34.878Z,12.50
2023-04-13T05:59:37.569Z,12.50
2023-04-13T06:00:40.039Z,12.50
2023-04-13T06:01:42.186Z,12.50
2023-04-13T06:02:44.884Z,12.50
2023-04-13T06:03:48.702Z,12.60
2023-04-13T06:04:53.814Z,12.60
2023-04-13T06:05:56.331Z,12.60
2023-04-13T06:06:58.417Z,12.60
2023-04-13T06:08:00.543Z,12.70
2023-04-13T06:09:02.638Z,12.70
2023-04-13T06:10:05.481Z,12.70
2023-04-13T06:11:09.207Z,12.80
2023-04-13T06:12:11.603Z,12.70
2023-04-13T06:13:13.707Z,12.70
2023-04-13T06:14:17.909Z,12.80
2023-04-13T06:15:20.804Z,12.80
2023-04-13T06:16:23.370Z,12.70
2023-04-13T06:17:25.607Z,12.80
2023-04-13T06:18:28.260Z,12.80
2023-04-13T06:19:30.341Z,12.80
2023-04-13T06:20:33.595Z,12.80
2023-04-13T06:21:36.750Z,12.80
2023-04-13T06:22:38.917Z,12.90
2023-04-13T06:23:41.227Z,12.90
2023-04-13T06:24:43.357Z,12.90
2023-04-13T06:25:46.061Z,12.90
2023-04-13T06:26:52.313Z,13.00
2023-04-13T06:27:54.556Z,13.00
2023-04-13T06:28:58.916Z,13.00
2023-04-13T06:30:01.296Z,13.10
2023-04-13T06:31:03.524Z,13.10
2023-04-13T06:32:06.690Z,13.10
2023-04-13T06:33:08.885Z,13.10
2023-04-13T06:34:11.014Z,13.10
2023-04-13T06:35:13.107Z,13.10
2023-04-13T06:36:15.714Z,13.10
2023-04-13T06:37:19.797Z,13.20
2023-04-13T06:38:21.914Z,13.20
2023-04-13T06:39:24.592Z,13.30
2023-04-13T06:40:27.689Z,13.40
2023-04-13T06:41:29.782Z,13.40
2023-04-13T06:42:33.289Z,13.40
2023-04-13T06:43:35.419Z,13.50
2023-04-13T06:44:37.515Z,13.50
2023-04-13T06:45:39.609Z,13.40
2023-04-13T06:46:41.794Z,13.50
2023-04-13T06:47:44.037Z,13.50
2023-04-13T06:48:46.747Z,13.50
2023-04-13T06:49:48.867Z,13.50
2023-04-13T06:50:52.298Z,13.50
2023-04-13T06:51:54.396Z,13.40
2023-04-13T06:52:57.566Z,13.40
2023-04-13T06:54:01.336Z,13.40
2023-04-13T06:55:04.914Z,13.50
2023-04-13T06:56:07.479Z,13.50
2023-04-13T06:57:09.558Z,13.50
2023-04-13T06:58:13.396Z,13.50
2023-04-13T06:59:15.516Z,13.50
2023-04-13T07:00:29.505Z,13.60
2023-04-13T07:01:32.855Z,13.60
2023-04-13T07:02:35.185Z,13.60
2023-04-13T07:03:37.740Z,13.60
2023-04-13T07:04:39.984Z,13.60
2023-04-13T07:05:43.350Z,13.60
2023-04-13T07:06:45.612Z,13.60
2023-04-13T07:07:47.769Z,13.70
2023-04-13T07:08:49.928Z,13.80
2023-04-13T07:09:52.764Z,13.80
2023-04-13T07:10:55.636Z,13.80
2023-04-13T07:11:58.106Z,13.80
2023-04-13T07:13:00.244Z,13.80
2023-04-13T07:14:09.842Z,13.80
2023-04-13T07:15:15.526Z,13.80
2023-04-13T07:16:20.087Z,13.90
2023-04-13T07:17:22.303Z,13.80
2023-04-13T07:18:24.435Z,13.90
2023-04-13T07:19:27.617Z,13.80
2023-04-13T07:20:29.739Z,13.80
2023-04-13T07:21:33.216Z,13.80
2023-04-13T07:22:35.666Z,13.80
2023-04-13T07:23:38.221Z,13.80
2023-04-13T07:24:40.461Z,13.80
2023-04-13T07:25:42.651Z,13.80
2023-04-13T07:26:44.826Z,13.90
2023-04-13T07:27:47.200Z,13.90
2023-04-13T07:28:49.246Z,13.90
2023-04-13T07:29:52.994Z,13.90
2023-04-13T07:30:55.115Z,13.90
2023-04-13T07:32:00.853Z,14.00
2023-04-13T07:33:03.155Z,14.00
2023-04-13T07:34:05.943Z,14.00
2023-04-13T07:35:08.901Z,14.00
2023-04-13T07:36:11.596Z,14.00
2023-04-13T07:37:13.808Z,14.00
2023-04-13T07:38:16.443Z,14.00
2023-04-13T07:39:19.060Z,14.00
2023-04-13T07:40:21.620Z,14.00
2023-04-13T07:41:24.347Z,14.10
2023-04-13T07:42:26.469Z,14.10
2023-04-13T07:43:28.565Z,14.00
2023-04-13T07:44:30.886Z,14.00
2023-04-13T07:45:34.368Z,14.00
2023-04-13T07:46:36.516Z,14.00
2023-04-13T07:47:38.696Z,14.10
2023-04-13T07:48:44.356Z,14.10
2023-04-13T07:49:46.767Z,14.20
2023-04-13T07:50:48.946Z,14.20
2023-04-13T07:51:54.115Z,14.20
2023-04-13T07:52:56.399Z,14.20
2023-04-13T07:53:58.582Z,14.20
2023-04-13T07:55:02.375Z,14.20
2023-04-13T07:56:04.898Z,14.20
2023-04-13T07:57:07.054Z,14.20
2023-04-13T07:58:09.156Z,14.20
2023-04-13T07:59:11.313Z,14.20
2023-04-13T08:00:15.073Z,14.20
2023-04-13T08:01:18.946Z,14.10
2023-04-13T08:02:22.754Z,14.10
2023-04-13T08:03:25.172Z,14.20
2023-04-13T08:04:27.965Z,14.20
2023-04-13T08:05:30.246Z,14.20
2023-04-13T08:06:34.833Z,14.20
2023-04-13T08:07:37.038Z,14.20
2023-04-13T08:08:41.169Z,14.10
2023-04-13T08:09:46.449Z,14.10
2023-04-13T08:10:48.590Z,14.10
2023-04-13T08:11:51.074Z,14.00
2023-04-13T08:12:53.497Z,14.10
2023-04-13T08:13:57.242Z,14.10
2023-04-13T08:14:59.331Z,14.10
2023-04-13T08:16:01.459Z,14.10
2023-04-13T08:17:06.141Z,14.20
2023-04-13T08:18:08.390Z,14.20
2023-04-13T08:19:11.114Z,14.20
2023-04-13T08:20:17.038Z,14.20
2023-04-13T08:21:19.169Z,14.20
2023-04-13T08:22:21.329Z,14.20
2023-04-13T08:23:24.138Z,14.20
2023-04-13T08:24:29.721Z,14.30
2023-04-13T08:25:33.187Z,14.30
2023-04-13T08:26:35.832Z,14.40
2023-04-13T08:27:38.213Z,14.50
2023-04-13T08:28:43.870Z,14.50
2023-04-13T08:30:06.127Z,14.50
2023-04-13T08:31:08.489Z,14.50
2023-04-13T08:32:12.743Z,14.50
2023-04-13T08:33:14.956Z,14.50
2023-04-13T08:34:17.284Z,14.50
2023-04-13T08:35:19.406Z,14.60
2023-04-13T08:36:21.541Z,14.70
2023-04-13T08:37:24.649Z,14.80
2023-04-13T08:38:27.471Z,14.80
2023-04-13T08:39:29.697Z,14.90
2023-04-13T08:40:36.244Z,14.90
2023-04-13T08:41:40.426Z,15.00
2023-04-13T08:42:43.857Z,15.00
2023-04-13T08:43:47.146Z,15.00
2023-04-13T08:44:51.527Z,15.10
2023-04-13T08:45:53.723Z,15.10
2023-04-13T08:46:56.170Z,15.10
2023-04-13T08:48:02.137Z,15.10
2023-04-13T08:49:04.787Z,15.10
2023-04-13T08:50:09.078Z,15.10
2023-04-13T08:51:11.400Z,15.10
2023-04-13T08:52:16.733Z,15.00
2023-04-13T08:53:20.289Z,15.00
2023-04-13T08:54:24.388Z,15.00
2023-04-13T08:55:26.631Z,15.10
2023-04-13T08:56:42.137Z,15.20
2023-04-13T08:57:51.348Z,15.20
2023-04-13T08:59:07.627Z,15.30
2023-04-13T09:00:17.237Z,15.30
2023-04-13T09:01:20.887Z,15.30
2023-04-13T09:02:26.399Z,15.20
2023-04-13T09:03:34.201Z,15.20
2023-04-13T09:04:39.204Z,15.20
2023-04-13T09:05:42.872Z,15.20
2023-04-13T09:06:47.961Z,15.10
2023-04-13T09:07:53.791Z,15.10
2023-04-13T09:08:57.302Z,15.00
2023-04-13T09:10:00.445Z,15.00
2023-04-13T09:11:03.143Z,15.00
2023-04-13T09:12:06.107Z,15.00
2023-04-13T09:13:08.512Z,15.00
2023-04-13T09:14:10.652Z,15.10
2023-04-13T09:15:17.164Z,15.20
2023-04-13T09:16:19.515Z,15.20
2023-04-13T09:17:26.117Z,15.20
2023-04-13T09:18:30.361Z,15.20
2023-04-13T09:19:33.734Z,15.20
2023-04-13T09:20:37.040Z,15.20
2023-04-13T09:21:41.158Z,15.20
2023-04-13T09:22:43.706Z,15.20
2023-04-13T09:23:55.887Z,15.20
2023-04-13T09:24:58.166Z,15.20
2023-04-13T09:26:07.719Z,15.10
2023-04-13T09:27:19.299Z,15.10
2023-04-13T09:28:21.611Z,15.20
2023-04-13T09:29:23.942Z,15.20
2023-04-13T09:30:27.489Z,15.20
2023-04-13T09:31:34.721Z,15.20
2023-04-13T09:32:36.982Z,15.20
2023-04-13T09:33:46.224Z,15.30
2023-04-13T09:34:58.979Z,15.40
2023-04-13T09:36:10.233Z,15.40
2023-04-13T09:37:13.686Z,15.40
2023-04-13T09:38:16.380Z,15.40
2023-04-13T09:39:25.089Z,15.50
2023-04-13T09:40:27.885Z,15.50
2023-04-13T09:41:32.025Z,15.40
2023-04-13T09:42:35.295Z,15.40
2023-04-13T09:43:41.783Z,15.40
2023-04-13T09:44:44.002Z,15.40
2023-04-13T09:45:46.449Z,15.50
2023-04-13T09:46:57.658Z,15.50
2023-04-13T09:48:02.588Z,15.50
2023-04-13T09:49:07.830Z,15.50
2023-04-13T09:50:26.946Z,15.50
2023-04-13T09:51:36.637Z,15.50
2023-04-13T09:52:41.835Z,15.60
2023-04-13T09:53:48.347Z,15.70
2023-04-13T09:54:51.482Z,15.90
2023-04-13T09:55:58.949Z,15.90
2023-04-13T09:57:01.168Z,15.90
2023-04-13T09:58:10.879Z,16.00
2023-04-13T09:59:13.665Z,16.10
2023-04-13T10:00:23.682Z,16.10
2023-04-13T10:01:28.912Z,16.20
2023-04-13T10:02:31.521Z,16.20
2023-04-13T10:03:34.697Z,16.30
2023-04-13T10:04:38.452Z,16.40
2023-04-13T10:05:57.828Z,16.50
2023-04-13T10:07:02.174Z,16.60
2023-04-13T10:08:05.589Z,16.80
2023-04-13T10:09:08.088Z,16.90
2023-04-13T10:10:11.334Z,16.90
2023-04-13T10:11:14.983Z,16.90
2023-04-13T10:12:17.584Z,16.90
2023-04-13T10:13:25.107Z,16.90
2023-04-13T10:14:33.253Z,16.90
2023-04-13T10:15:53.336Z,16.90
2023-04-13T10:17:22.725Z,17.00
2023-04-13T10:18:35.487Z,16.90
2023-04-13T10:19:43.292Z,16.90
2023-04-13T10:20:46.555Z,17.00
2023-04-13T10:21:51.831Z,17.20
2023-04-13T10:22:54.274Z,17.20
2023-04-13T10:23:56.964Z,17.30
2023-04-13T10:24:59.255Z,17.40
2023-04-13T10:26:03.499Z,17.50
2023-04-13T10:27:13.707Z,17.60
2023-04-13T10:28:16.101Z,17.70
2023-04-13T10:29:27.813Z,17.80
2023-04-13T10:30:30.126Z,17.90
2023-04-13T10:31:39.581Z,18.00
2023-04-13T10:32:42.706Z,18.20
2023-04-13T10:33:48.421Z,18.20
2023-04-13T10:34:52.922Z,18.30
2023-04-13T10:35:57.016Z,18.30
2023-04-13T10:37:03.840Z,18.30
2023-04-13T10:38:08.267Z,18.40
2023-04-13T10:39:10.917Z,18.50
2023-04-13T10:40:14.542Z,18.50
2023-04-13T10:41:26.317Z,18.50
2023-04-13T10:42:50.682Z,18.50
2023-04-13T10:44:01.725Z,18.50
2023-04-13T10:45:04.362Z,18.60
2023-04-13T10:46:11.207Z,18.60
2023-04-13T10:47:17.961Z,18.70
2023-04-13T10:48:22.744Z,18.70
2023-04-13T10:49:31.956Z,18.60
2023-04-13T10:50:35.781Z,18.60
2023-04-13T10:51:41.365Z,18.50
2023-04-13T10:52:57.488Z,18.50
2023-04-13T10:54:04.391Z,18.50
2023-04-13T10:55:10.592Z,18.50
2023-04-13T10:56:16.714Z,18.40
2023-04-13T10:57:19.033Z,18.40
2023-04-13T10:58:22.997Z,18.40
2023-04-13T10:59:49.187Z,18.30
2023-04-13T11:00:59.476Z,18.30
2023-04-13T11:02:06.684Z,18.20
2023-04-13T11:03:09.533Z,18.30
2023-04-13T11:04:15.907Z,18.20
2023-04-13T11:05:21.084Z,18.30
2023-04-13T11:06:24.770Z,18.40
2023-04-13T11:07:27.211Z,18.40
2023-04-13T11:08:30.613Z,18.40
2023-04-13T11:09:32.789Z,18.40
2023-04-13T11:10:34.930Z,18.50
2023-04-13T11:11:37.357Z,18.60
2023-04-13T11:12:39.577Z,18.70
2023-04-13T11:13:46.127Z,18.80
2023-04-13T11:14:49.198Z,18.80
2023-04-13T11:15:52.029Z,18.80
2023-04-13T11:16:58.468Z,18.70
2023-04-13T11:18:02.362Z,18.80
2023-04-13T11:19:05.439Z,18.80
2023-04-13T11:20:11.214Z,18.90
2023-04-13T11:21:16.689Z,18.90
2023-04-13T11:22:27.767Z,18.90
2023-04-13T11:23:34.677Z,18.90
2023-04-13T11:24:37.037Z,18.70
2023-04-13T11:25:49.489Z,18.70
2023-04-13T11:26:52.423Z,18.80
2023-04-13T11:27:58.813Z,18.90
2023-04-13T11:29:04.237Z,19.00
2023-04-13T11:30:09.924Z,19.10
2023-04-13T11:31:12.794Z,19.30
2023-04-13T11:32:21.417Z,19.40
2023-04-13T11:33:27.686Z,19.40
2023-04-13T11:34:30.367Z,19.40
2023-04-13T11:35:32.652Z,19.20
2023-04-13T11:36:34.984Z,19.20
2023-04-13T11:37:39.600Z,19.20
2023-04-13T11:38:43.663Z,19.20
2023-04-13T11:39:46.391Z,19.20
2023-04-13T11:40:48.837Z,19.10
2023-04-13T11:41:51.699Z,19.00
2023-04-13T11:42:55.458Z,19.00
2023-04-13T11:43:57.898Z,18.90
2023-04-13T11:45:00.015Z,18.70
2023-04-13T11:46:02.205Z,18.70
2023-04-13T11:47:04.772Z,18.60
2023-04-13T11:48:08.262Z,18.60
2023-04-13T11:49:11.397Z,18.60
2023-04-13T11:50:15.751Z,18.60
2023-04-13T11:51:18.113Z,18.60
2023-04-13T11:52:20.775Z,18.60
2023-04-13T11:53:24.523Z,18.60
2023-04-13T11:54:27.359Z,18.60
2023-04-13T11:55:31.364Z,18.70
2023-04-13T11:56:37.696Z,18.80
2023-04-13T11:57:42.894Z,18.90
2023-04-13T11:58:45.027Z,18.90
2023-04-13T11:59:50.195Z,19.00
2023-04-13T12:00:54.530Z,19.10
2023-04-13T12:02:02.926Z,19.30
2023-04-13T12:03:34.282Z,19.50
2023-04-13T12:04:38.949Z,19.60
2023-04-13T12:05:43.150Z,19.80
2023-04-13T12:06:49.908Z,19.90
2023-04-13T12:07:54.988Z,19.80
2023-04-13T12:09:09.178Z,19.70
2023-04-13T12:10:23.375Z,19.60
2023-04-13T12:11:42.350Z,19.50
2023-04-13T12:12:51.777Z,19.60
2023-04-13T12:15:25.027Z,19.60
2023-04-13T12:17:48.025Z,19.70
2023-04-13T12:18:52.333Z,19.80
2023-04-13T12:19:57.433Z,20.00
2023-04-13T12:21:05.539Z,20.10
2023-04-13T12:22:09.641Z,20.10
2023-04-13T12:23:22.893Z,20.10
2023-04-13T12:24:34.550Z,20.20
2023-04-13T12:25:37.093Z,20.20
2023-04-13T12:27:16.960Z,20.10
2023-04-13T12:28:04.926Z,20.10
2023-04-13T12:29:08.196Z,20.00
2023-04-13T12:30:12.313Z,20.10
2023-04-13T12:31:16.495Z,20.30
2023-04-13T12:32:18.836Z,20.50
2023-04-13T12:33:22.793Z,20.80
2023-04-13T12:34:25.046Z,20.80
2023-04-13T12:35:27.187Z,20.60
2023-04-13T12:36:31.789Z,20.30
2023-04-13T12:37:33.959Z,20.20
2023-04-13T12:38:36.893Z,20.10
2023-04-13T12:39:41.779Z,20.10
2023-04-13T12:40:44.002Z,20.00
2023-04-13T12:41:46.890Z,19.90
2023-04-13T12:42:49.601Z,19.70
2023-04-13T12:43:51.798Z,19.60
2023-04-13T12:44:55.294Z,19.40
2023-04-13T12:45:57.465Z,19.20
2023-04-13T12:46:59.685Z,19.10
2023-04-13T12:48:01.828Z,19.00
2023-04-13T12:49:03.991Z,18.90
2023-04-13T12:50:08.173Z,18.90
2023-04-13T12:51:10.468Z,18.80
2023-04-13T12:52:12.562Z,18.50
2023-04-13T12:53:14.848Z,18.40
2023-04-13T12:54:18.082Z,18.20
2023-04-13T12:55:21.567Z,18.10
2023-04-13T12:56:24.744Z,18.00
2023-04-13T12:57:27.757Z,18.00
2023-04-13T12:58:29.865Z,18.00
2023-04-13T12:59:31.995Z,18.10
2023-04-13T13:00:34.640Z,18.30
2023-04-13T13:01:37.570Z,18.60
2023-04-13T13:02:40.328Z,19.30
2023-04-13T13:03:43.808Z,19.60
2023-04-13T13:04:46.150Z,19.50
2023-04-13T13:05:48.226Z,19.20
2023-04-13T13:06:50.364Z,19.00
2023-04-13T13:07:53.066Z,18.90
2023-04-13T13:08:55.325Z,18.70
2023-04-13T13:10:00.977Z,18.60
2023-04-13T13:11:04.501Z,18.40
2023-04-13T13:12:07.073Z,18.30
2023-04-13T13:13:11.316Z,18.20
2023-04-13T13:14:13.455Z,18.10
2023-04-13T13:15:17.085Z,18.00
2023-04-13T13:16:19.653Z,17.90
2023-04-13T13:17:22.059Z,17.80
2023-04-13T13:18:26.661Z,17.70
2023-04-13T13:19:32.320Z,17.70
2023-04-13T13:20:35.596Z,17.70
2023-04-13T13:21:37.733Z,17.60
2023-04-13T13:22:40.383Z,17.60
2023-04-13T13:23:42.467Z,17.60
2023-04-13T13:24:44.552Z,17.70
2023-04-13T13:25:57.406Z,17.70
2023-04-13T13:28:15.796Z,17.70
2023-04-13T13:29:18.061Z,17.70
2023-04-13T13:30:20.214Z,17.70
2023-04-13T13:31:22.356Z,17.80
2023-04-13T13:32:25.649Z,17.70
2023-04-13T13:33:27.820Z,17.60
2023-04-13T13:34:29.931Z,17.60
2023-04-13T13:35:33.034Z,17.60
2023-04-13T13:36:35.194Z,17.60
2023-04-13T13:37:37.424Z,17.50
2023-04-13T13:38:39.550Z,17.50
2023-04-13T13:39:42.568Z,17.50
2023-04-13T13:40:46.234Z,17.50
2023-04-13T13:41:48.488Z,17.40
2023-04-13T13:42:52.953Z,17.30
2023-04-13T13:43:55.174Z,17.30
2023-04-13T13:44:57.257Z,17.30
2023-04-13T13:45:59.504Z,17.20
2023-04-13T13:47:01.701Z,17.20
2023-04-13T13:48:04.099Z,17.20
2023-04-13T13:49:06.505Z,17.20
2023-04-13T13:50:09.856Z,17.20
2023-04-13T13:51:12.002Z,17.10